FKN weather

Public forecast

Using degrees Fahrenheit for public forecast. Weather courtesy of forecast.io.

Current aviation weather report (METAR) for Franklin Regional Airport

Retrieved 2020/08/09 03:15 UTC (0 seconds ago):

KFKN 090315Z AUTO 00000KT 10SM CLR 22/21 A3015 RMK AO2 LTG DSNT SW T02160214

Closest aviation forecast (TAF) to Franklin Regional Airport

Forecast is more than 6 hours old.

Closest forecast is Felker Army Air Field, 29.7 nm (55.0 km) NNE. Retrieved 2020/08/08 18:12 UTC (9 hours ago):

TAF KFAF 081800Z 0818/0924 VRB06KT 9999 SCT020 BKN030 QNH3006INS TEMPO 0819/0824 4800 -TSRA OVC020CB BECMG 0900/0901 VRB06KT 9999 SCT015 QNH3009INS BECMG 0914/0915 VRB06KT 9999 FEW020 QNH3004INS TX30/0819Z TN24/0910Z LAST NO AMDS AFT 0902 NEXT 0910